createdAt,value
2022-10-22T00:02:59.348Z,98014.15
2022-10-22T00:06:02.466Z,98003.38
2022-10-22T00:09:05.484Z,97997.25
2022-10-22T00:12:08.542Z,97997.95
2022-10-22T00:15:12.058Z,97997.89
2022-10-22T00:18:15.027Z,97989.88
2022-10-22T00:21:17.902Z,97986.73
2022-10-22T00:24:20.903Z,97986.88
2022-10-22T00:27:23.942Z,97996.00
2022-10-22T00:30:27.022Z,98005.34
2022-10-22T00:33:30.932Z,98004.17
2022-10-22T00:36:33.833Z,98009.52
2022-10-22T00:39:36.677Z,97997.89
2022-10-22T00:42:39.826Z,97994.11
2022-10-22T00:45:43.809Z,97989.48
2022-10-22T00:48:46.795Z,97983.44
2022-10-22T00:51:49.806Z,97979.75
2022-10-22T00:54:52.845Z,97977.16
2022-10-22T00:57:57.806Z,97977.95
2022-10-22T01:01:00.976Z,97972.60
2022-10-22T01:04:03.977Z,97973.00
2022-10-22T01:07:07.182Z,97972.59
2022-10-22T01:10:24.241Z,97975.59
2022-10-22T01:13:48.819Z,97970.86
2022-10-22T01:17:24.357Z,97963.95
2022-10-22T01:20:38.616Z,97960.27
2022-10-22T01:24:12.045Z,97965.16
2022-10-22T01:27:27.894Z,97960.20
2022-10-22T01:30:31.047Z,97966.17
2022-10-22T01:33:34.410Z,97969.25
2022-10-22T01:36:38.820Z,97969.48
2022-10-22T01:39:45.443Z,97971.60
2022-10-22T01:42:57.498Z,97968.21
2022-10-22T01:46:03.788Z,97967.81
2022-10-22T01:49:33.269Z,97967.98
2022-10-22T01:53:13.555Z,97961.93
2022-10-22T01:56:50.520Z,97954.25
2022-10-22T02:00:02.560Z,97964.53
2022-10-22T02:03:19.811Z,97961.88
2022-10-22T02:06:27.984Z,97959.29
2022-10-22T02:09:33.394Z,97955.60
2022-10-22T02:12:39.274Z,97952.14
2022-10-22T02:15:45.904Z,97954.19
2022-10-22T02:18:53.959Z,97955.76
2022-10-22T02:21:57.223Z,97954.58
2022-10-22T02:25:00.559Z,97958.11
2022-10-22T02:28:16.189Z,97956.16
2022-10-22T02:31:28.248Z,97949.96
2022-10-22T02:34:32.494Z,97947.84
2022-10-22T02:37:36.493Z,97935.84
2022-10-22T02:40:39.659Z,97943.77
2022-10-22T02:43:53.289Z,97947.08
2022-10-22T02:46:56.848Z,97949.84
2022-10-22T02:49:59.778Z,97959.51
2022-10-22T02:53:02.717Z,97973.48
2022-10-22T02:56:05.997Z,97981.55
2022-10-22T02:59:08.880Z,97993.57
2022-10-22T03:02:11.748Z,97992.33
2022-10-22T03:05:14.670Z,98002.52
2022-10-22T03:08:18.130Z,98005.67
2022-10-22T03:11:20.980Z,97993.11
2022-10-22T03:14:23.880Z,97988.02
2022-10-22T03:17:26.767Z,97990.06
2022-10-22T03:20:29.663Z,97976.80
2022-10-22T03:23:33.222Z,97971.69
2022-10-22T03:26:37.560Z,97966.52
2022-10-22T03:29:42.100Z,97967.30
2022-10-22T03:32:44.954Z,97961.57
2022-10-22T03:35:48.176Z,97963.77
2022-10-22T03:38:51.245Z,97961.02
2022-10-22T03:41:54.295Z,97957.89
2022-10-22T03:44:57.194Z,97959.70
2022-10-22T03:48:00.124Z,97970.45
2022-10-22T03:51:03.096Z,97972.66
2022-10-22T03:54:06.205Z,97973.12
2022-10-22T03:57:09.680Z,97977.98
2022-10-22T04:00:12.748Z,97975.31
2022-10-22T04:03:15.695Z,97973.67
2022-10-22T04:06:18.647Z,97983.02
2022-10-22T04:09:21.747Z,97975.70
2022-10-22T04:12:24.611Z,97973.67
2022-10-22T04:15:29.082Z,97972.11
2022-10-22T04:18:31.940Z,97971.16
2022-10-22T04:21:35.066Z,97951.70
2022-10-22T04:24:38.220Z,97934.66
2022-10-22T04:27:41.337Z,97927.84
2022-10-22T04:30:44.458Z,97926.04
2022-10-22T04:33:47.922Z,97929.09
2022-10-22T04:36:50.843Z,97935.30
2022-10-22T04:39:53.642Z,97930.90
2022-10-22T04:42:56.798Z,97930.83
2022-10-22T04:46:00.793Z,97937.73
2022-10-22T04:49:04.823Z,97934.58
2022-10-22T04:52:07.754Z,97924.70
2022-10-22T04:55:10.623Z,97919.42
2022-10-22T04:58:13.494Z,97919.81
2022-10-22T05:01:19.048Z,97922.40
2022-10-22T05:04:22.032Z,97919.73
2022-10-22T05:07:25.340Z,97920.44
2022-10-22T05:10:28.583Z,97929.38
2022-10-22T05:13:31.474Z,97947.43
2022-10-22T05:16:35.346Z,97955.12
2022-10-22T05:19:38.352Z,97957.48
2022-10-22T05:22:41.289Z,97956.00
2022-10-22T05:25:44.211Z,97950.56
2022-10-22T05:28:48.622Z,97941.24
2022-10-22T05:31:51.730Z,97953.88
2022-10-22T05:34:54.654Z,97953.10
2022-10-22T05:41:08.741Z,97967.86
2022-10-22T05:44:12.944Z,97958.36
2022-10-22T05:47:16.088Z,97958.91
2022-10-22T05:50:18.957Z,97948.63
2022-10-22T05:53:22.094Z,97937.48
2022-10-22T05:56:26.499Z,97936.47
2022-10-22T05:59:29.905Z,97943.52
2022-10-22T06:02:32.828Z,97948.23
2022-10-22T06:05:37.059Z,97951.98
2022-10-22T06:08:39.941Z,97942.48
2022-10-22T06:11:42.869Z,97935.81
2022-10-22T06:14:45.723Z,97965.70
2022-10-22T06:17:48.588Z,97986.73
2022-10-22T06:20:51.523Z,97999.61
2022-10-22T06:23:56.828Z,97999.21
2022-10-22T06:26:59.910Z,98005.71
2022-10-22T06:30:03.603Z,98005.33
2022-10-22T06:33:06.454Z,98014.02
2022-10-22T06:36:12.907Z,98020.13
2022-10-22T06:39:17.721Z,98024.90
2022-10-22T06:42:20.618Z,98024.75
2022-10-22T06:45:25.729Z,98025.67
2022-10-22T06:48:28.922Z,98022.85
2022-10-22T06:51:31.939Z,98021.66
2022-10-22T06:54:34.799Z,98026.45
2022-10-22T06:58:10.294Z,98028.33
2022-10-22T07:01:23.134Z,98024.60
2022-10-22T07:04:26.212Z,98019.15
2022-10-22T07:07:29.114Z,98018.65
2022-10-22T07:10:32.419Z,98019.88
2022-10-22T07:13:35.997Z,98007.98
2022-10-22T07:16:39.423Z,98013.29
2022-10-22T07:19:42.487Z,98011.68
2022-10-22T07:22:45.679Z,98010.88
2022-10-22T07:25:48.774Z,98023.50
2022-10-22T07:28:52.018Z,98024.11
2022-10-22T07:31:54.921Z,98023.79
2022-10-22T07:34:58.090Z,98026.13
2022-10-22T07:38:01.301Z,98030.02
2022-10-22T07:41:04.854Z,98024.02
2022-10-22T07:44:07.762Z,98028.17
2022-10-22T07:47:10.713Z,98025.70
2022-10-22T07:50:13.668Z,98010.58
2022-10-22T07:53:16.904Z,97996.23
2022-10-22T07:56:19.749Z,98015.33
2022-10-22T07:59:22.708Z,98030.81
2022-10-22T08:02:25.870Z,98029.23
2022-10-22T08:05:29.199Z,98023.56
2022-10-22T08:08:32.489Z,98012.36
2022-10-22T08:11:35.596Z,98009.13
2022-10-22T08:14:38.441Z,98009.98
2022-10-22T08:17:41.469Z,98015.55
2022-10-22T08:20:44.856Z,98034.63
2022-10-22T08:23:47.788Z,98047.80
2022-10-22T08:26:50.743Z,98042.36
2022-10-22T08:29:53.518Z,98035.31
2022-10-22T08:32:56.500Z,98029.84
2022-10-22T08:35:59.421Z,98031.50
2022-10-22T08:39:02.292Z,98035.58
2022-10-22T08:42:37.272Z,98050.06
2022-10-22T08:46:03.291Z,98052.18
2022-10-22T08:49:18.948Z,98053.75
2022-10-22T08:52:21.977Z,98048.41
2022-10-22T08:55:26.037Z,98044.88
2022-10-22T08:58:50.264Z,98046.05
2022-10-22T09:01:54.651Z,98050.94
2022-10-22T09:05:12.439Z,98048.19
2022-10-22T09:08:17.987Z,98047.23
2022-10-22T09:11:30.804Z,98041.09
2022-10-22T09:14:33.724Z,98041.47
2022-10-22T09:17:50.173Z,98044.94
2022-10-22T09:21:06.914Z,98050.13
2022-10-22T09:24:15.902Z,98055.14
2022-10-22T09:27:27.678Z,98059.94
2022-10-22T09:30:34.418Z,98057.46
2022-10-22T09:33:37.302Z,98061.00
2022-10-22T09:36:40.293Z,98063.99
2022-10-22T09:39:53.444Z,98067.52
2022-10-22T09:42:56.292Z,98071.94
2022-10-22T09:46:02.080Z,98073.60
2022-10-22T09:49:12.635Z,98074.63
2022-10-22T09:52:28.927Z,98075.10
2022-10-22T09:55:32.263Z,98070.93
2022-10-22T09:58:46.546Z,98066.92
2022-10-22T10:02:04.968Z,98060.63
2022-10-22T10:05:26.803Z,98060.39
2022-10-22T10:08:29.792Z,98054.48
2022-10-22T10:11:40.065Z,98052.77
2022-10-22T10:15:04.719Z,98053.55
2022-10-22T10:18:25.434Z,98048.85
2022-10-22T10:21:51.288Z,98048.23
2022-10-22T10:25:20.521Z,98043.36
2022-10-22T10:28:32.791Z,98039.91
2022-10-22T10:31:49.803Z,98042.14
2022-10-22T10:35:05.508Z,98041.51
2022-10-22T10:38:33.386Z,98041.36
2022-10-22T10:41:55.115Z,98052.68
2022-10-22T10:45:01.343Z,98051.35
2022-10-22T10:48:41.869Z,98050.41
2022-10-22T10:51:57.424Z,98045.94
2022-10-22T10:55:22.587Z,98040.66
2022-10-22T10:58:41.548Z,98038.29
2022-10-22T11:01:50.840Z,98041.11
2022-10-22T11:05:33.372Z,98038.91
2022-10-22T11:08:39.761Z,98032.13
2022-10-22T11:11:51.689Z,98027.33
2022-10-22T11:15:08.909Z,98030.98
2022-10-22T11:18:24.153Z,98032.40
2022-10-22T11:21:42.634Z,98023.19
2022-10-22T11:24:57.680Z,98017.02
2022-10-22T11:28:11.238Z,98008.05
2022-10-22T11:31:17.123Z,98008.96
2022-10-22T11:34:34.000Z,98006.83
2022-10-22T11:37:39.204Z,98015.08
2022-10-22T11:40:51.311Z,98015.06
2022-10-22T11:44:11.910Z,98014.40
2022-10-22T11:47:24.123Z,98013.42
2022-10-22T11:50:43.181Z,98003.56
2022-10-22T11:53:46.706Z,98001.86
2022-10-22T11:56:57.599Z,97996.78
2022-10-22T12:00:01.466Z,98003.91
2022-10-22T12:03:18.539Z,98006.50
2022-10-22T12:06:26.437Z,98005.84
2022-10-22T12:09:32.399Z,98000.48
2022-10-22T12:12:38.799Z,98004.36
2022-10-22T12:15:51.575Z,98001.92
2022-10-22T12:19:03.464Z,98004.52
2022-10-22T12:22:06.255Z,98012.08
2022-10-22T12:25:23.131Z,98010.43
2022-10-22T12:28:26.017Z,98003.27
2022-10-22T12:31:35.704Z,97995.09
2022-10-22T12:34:46.850Z,97994.60
2022-10-22T12:37:52.148Z,97990.05
2022-10-22T12:40:56.229Z,97993.02
2022-10-22T12:44:01.337Z,97997.65
2022-10-22T12:47:06.570Z,97996.45
2022-10-22T12:50:17.828Z,97997.00
2022-10-22T12:53:37.811Z,97990.52
2022-10-22T12:56:40.983Z,97974.80
2022-10-22T12:59:49.794Z,97978.70
2022-10-22T13:02:53.866Z,97977.91
2022-10-22T13:05:56.761Z,97977.92
2022-10-22T13:08:59.669Z,97974.39
2022-10-22T13:12:07.030Z,97972.20
2022-10-22T13:15:30.160Z,97981.05
2022-10-22T13:18:33.307Z,97996.56
2022-10-22T13:21:39.356Z,97999.09
2022-10-22T13:24:50.624Z,97996.56
2022-10-22T13:27:57.454Z,98004.55
2022-10-22T13:31:19.371Z,98014.78
2022-10-22T13:34:26.182Z,98009.69
2022-10-22T13:37:32.388Z,98006.15
2022-10-22T13:40:35.377Z,97997.91
2022-10-22T13:43:38.546Z,97998.33
2022-10-22T13:46:43.217Z,97999.38
2022-10-22T13:49:46.849Z,98000.80
2022-10-22T13:52:55.641Z,97999.87
2022-10-22T13:56:01.110Z,98007.36
2022-10-22T13:59:07.132Z,98008.40
2022-10-22T14:02:13.302Z,98001.48
2022-10-22T14:05:17.954Z,98006.85
2022-10-22T14:08:23.190Z,98010.48
2022-10-22T14:11:27.484Z,98019.38
2022-10-22T14:14:30.397Z,98023.48
2022-10-22T14:17:33.256Z,98018.54
2022-10-22T14:20:39.885Z,98018.95
2022-10-22T14:23:45.136Z,98019.42
2022-10-22T14:26:47.987Z,98022.89
2022-10-22T14:29:51.036Z,98021.73
2022-10-22T14:32:53.911Z,98024.24
2022-10-22T14:35:57.066Z,98026.38
2022-10-22T14:38:59.891Z,98029.22
2022-10-22T14:42:02.715Z,98026.30
2022-10-22T14:45:06.495Z,98024.42
2022-10-22T14:48:10.051Z,98021.84
2022-10-22T14:51:18.233Z,98021.60
2022-10-22T14:54:21.507Z,98023.17
2022-10-22T14:57:24.409Z,98021.06
2022-10-22T15:00:27.497Z,98025.63
2022-10-22T15:03:31.484Z,98029.34
2022-10-22T15:06:34.926Z,98028.70
2022-10-22T15:09:38.002Z,98028.23
2022-10-22T15:12:40.907Z,98028.48
2022-10-22T15:15:43.851Z,98032.04
2022-10-22T15:18:49.819Z,98031.02
2022-10-22T15:21:52.765Z,98031.88
2022-10-22T15:24:55.911Z,98033.39
2022-10-22T15:28:02.035Z,98036.31
2022-10-22T15:31:15.139Z,98035.39
2022-10-22T15:34:20.521Z,98036.95
2022-10-22T15:37:23.696Z,98039.95
2022-10-22T15:40:26.876Z,98040.04
2022-10-22T15:43:29.979Z,98041.09
2022-10-22T15:46:35.327Z,98042.66
2022-10-22T15:49:39.499Z,98042.76
2022-10-22T15:52:42.432Z,98044.12
2022-10-22T15:55:49.538Z,98049.08
2022-10-22T15:58:57.642Z,98049.63
2022-10-22T16:02:00.494Z,98049.55
2022-10-22T16:05:03.930Z,98048.99
2022-10-22T16:08:06.832Z,98052.70
2022-10-22T16:11:10.300Z,98060.91
2022-10-22T16:14:15.352Z,98071.69
2022-10-22T16:17:20.129Z,98074.06
2022-10-22T16:20:26.539Z,98079.81
2022-10-22T16:23:29.612Z,98082.89
2022-10-22T16:26:34.017Z,98096.66
2022-10-22T16:29:39.332Z,98102.18
2022-10-22T16:32:42.604Z,98105.64
2022-10-22T16:35:45.601Z,98116.19
2022-10-22T16:38:50.039Z,98117.38
2022-10-22T16:41:53.074Z,98118.45
2022-10-22T16:44:55.888Z,98121.14
2022-10-22T16:47:58.980Z,98121.63
2022-10-22T16:51:10.131Z,98120.20
2022-10-22T16:54:15.713Z,98126.75
2022-10-22T16:57:18.665Z,98131.46
2022-10-22T17:00:21.817Z,98140.43
2022-10-22T17:03:27.546Z,98142.02
2022-10-22T17:06:31.405Z,98146.80
2022-10-22T17:09:34.231Z,98157.27
2022-10-22T17:12:37.145Z,98158.69
2022-10-22T17:15:40.621Z,98157.44
2022-10-22T17:21:54.494Z,98164.67
2022-10-22T17:25:13.503Z,98166.66
2022-10-22T17:28:16.347Z,98167.13
2022-10-22T17:31:27.904Z,98175.16
2022-10-22T17:34:33.250Z,98174.61
2022-10-22T17:37:36.721Z,98173.83
2022-10-22T17:40:39.568Z,98172.56
2022-10-22T17:43:42.458Z,98173.11
2022-10-22T17:46:46.261Z,98176.34
2022-10-22T17:49:50.947Z,98182.16
2022-10-22T17:52:53.856Z,98182.89
2022-10-22T17:56:07.031Z,98181.14
2022-10-22T17:59:13.161Z,98177.05
2022-10-22T18:02:18.097Z,98174.54
2022-10-22T18:05:22.219Z,98170.45
2022-10-22T18:08:26.360Z,98172.73
2022-10-22T18:11:31.556Z,98169.65
2022-10-22T18:14:34.734Z,98168.32
2022-10-22T18:17:39.572Z,98157.77
2022-10-22T18:20:49.717Z,98160.68
2022-10-22T18:23:52.603Z,98165.95
2022-10-22T18:26:55.753Z,98165.80
2022-10-22T18:29:58.600Z,98169.33
2022-10-22T18:33:01.496Z,98172.31
2022-10-22T18:36:10.385Z,98174.91
2022-10-22T18:39:17.532Z,98177.58
2022-10-22T18:42:20.388Z,98185.52
2022-10-22T18:45:23.289Z,98187.89
2022-10-22T18:48:26.458Z,98190.64
2022-10-22T18:51:30.942Z,98203.14
2022-10-22T18:54:34.789Z,98208.80
2022-10-22T18:57:37.642Z,98215.23
2022-10-22T19:00:40.567Z,98219.80
2022-10-22T19:03:44.390Z,98223.73
2022-10-22T19:06:47.530Z,98222.14
2022-10-22T19:09:50.453Z,98226.70
2022-10-22T19:12:55.851Z,98230.86
2022-10-22T19:16:02.527Z,98238.65
2022-10-22T19:19:07.198Z,98244.30
2022-10-22T19:22:13.066Z,98245.86
2022-10-22T19:25:16.125Z,98256.41
2022-10-22T19:28:21.422Z,98256.40
2022-10-22T19:31:26.023Z,98252.30
2022-10-22T19:34:28.899Z,98258.34
2022-10-22T19:37:32.064Z,98253.87
2022-10-22T19:40:34.925Z,98259.05
2022-10-22T19:43:38.521Z,98268.02
2022-10-22T19:46:41.767Z,98271.73
2022-10-22T19:49:44.664Z,98271.15
2022-10-22T19:52:47.587Z,98271.71
2022-10-22T19:55:51.062Z,98276.35
2022-10-22T19:58:54.194Z,98279.09
2022-10-22T20:01:57.037Z,98287.98
2022-10-22T20:04:59.940Z,98287.28
2022-10-22T20:08:02.813Z,98286.96
2022-10-22T20:11:10.586Z,98281.21
2022-10-22T20:14:14.231Z,98280.02
2022-10-22T20:17:17.103Z,98279.86
2022-10-22T20:20:21.970Z,98282.06
2022-10-22T20:23:28.441Z,98281.20
2022-10-22T20:26:31.803Z,98284.97
2022-10-22T20:29:34.694Z,98284.57
2022-10-22T20:32:38.969Z,98289.37
2022-10-22T20:35:42.601Z,98290.70
2022-10-22T20:38:48.160Z,98295.95
2022-10-22T20:41:51.409Z,98294.62
2022-10-22T20:44:54.252Z,98298.00
2022-10-22T20:48:02.796Z,98296.98
2022-10-22T20:51:06.071Z,98293.98
2022-10-22T20:54:10.001Z,98294.52
2022-10-22T20:57:13.578Z,98295.23
2022-10-22T21:00:16.617Z,98295.02
2022-10-22T21:03:19.744Z,98301.30
2022-10-22T21:06:23.111Z,98306.02
2022-10-22T21:09:26.136Z,98309.73
2022-10-22T21:12:29.044Z,98314.69
2022-10-22T21:15:31.914Z,98313.65
2022-10-22T21:18:34.926Z,98322.16
2022-10-22T21:21:37.911Z,98317.05
2022-10-22T21:24:41.230Z,98319.33
2022-10-22T21:27:44.055Z,98322.08
2022-10-22T21:30:47.201Z,98326.40
2022-10-22T21:33:50.447Z,98330.80
2022-10-22T21:36:53.386Z,98333.09
2022-10-22T21:39:56.570Z,98337.73
2022-10-22T21:42:59.459Z,98339.86
2022-10-22T21:46:28.705Z,98340.10
2022-10-22T21:49:31.748Z,98339.69
2022-10-22T21:52:34.573Z,98337.42
2022-10-22T21:55:41.635Z,98341.26
2022-10-22T21:58:44.862Z,98338.02
2022-10-22T22:01:47.840Z,98335.42
2022-10-22T22:04:54.805Z,98336.83
2022-10-22T22:07:57.797Z,98333.61
2022-10-22T22:11:06.293Z,98331.01
2022-10-22T22:14:09.326Z,98338.26
2022-10-22T22:17:12.402Z,98342.82
2022-10-22T22:20:15.405Z,98343.13
2022-10-22T22:23:18.247Z,98341.71
2022-10-22T22:26:29.510Z,98342.83
2022-10-22T22:29:33.712Z,98351.95
2022-10-22T22:32:38.612Z,98354.80
2022-10-22T22:35:41.503Z,98353.38
2022-10-22T22:38:44.407Z,98360.23
2022-10-22T22:41:47.320Z,98358.50
2022-10-22T22:44:50.178Z,98364.33
2022-10-22T22:47:55.046Z,98368.27
2022-10-22T22:51:00.095Z,98370.08
2022-10-22T22:54:03.054Z,98372.67
2022-10-22T22:57:05.962Z,98375.36
2022-10-22T23:00:09.443Z,98379.85
2022-10-22T23:03:12.384Z,98383.56
2022-10-22T23:06:15.892Z,98385.29
2022-10-22T23:12:23.662Z,98383.73
2022-10-22T23:15:26.512Z,98388.13
2022-10-22T23:18:29.373Z,98390.27
2022-10-22T23:21:35.912Z,98389.02
2022-10-22T23:24:39.405Z,98395.63
2022-10-22T23:27:42.595Z,98392.40
2022-10-22T23:30:45.730Z,98396.34
2022-10-22T23:33:48.843Z,98403.35
2022-10-22T23:36:52.521Z,98411.63
2022-10-22T23:39:55.426Z,98406.98
2022-10-22T23:42:58.321Z,98410.29
2022-10-22T23:46:01.501Z,98414.94
2022-10-22T23:49:05.632Z,98416.35
2022-10-22T23:52:08.542Z,98422.49
2022-10-22T23:55:11.427Z,98422.02
2022-10-22T23:58:14.326Z,98418.39
